Time;durP1;ratioP1;P1;durP2;ratioP2;P2;SDS_P1;SDS_P2;PMS_P1;PMS_P2;Temp;Humidity;BMP_temperature;BMP_pressure;BME280_temperature;BME280_humidity;BME280_pressure;Samples;Min_cycle;Max_cycle;Signal;HPM_P1;HPM_P2
2023/04/15 00:01:43;;;;;;;6.90;2.53;;;;;;;-5.58;37.84;97012.63;6295102;28;20513;-71
2023/04/15 00:04:45;;;;;;;9.27;3.88;;;;;;;-5.57;38.17;97009.25;6294730;28;20161;-70
2023/04/15 00:07:53;;;;;;;9.05;4.13;;;;;;;-5.56;38.30;97016.06;6295176;28;20040;-70
2023/04/15 00:10:55;;;;;;;9.25;4.03;;;;;;;-5.66;38.60;97024.63;6295496;28;20040;-69
2023/04/15 00:13:59;;;;;;;7.13;2.88;;;;;;;-5.67;38.15;97028.00;6278523;28;20068;-70
2023/04/15 00:17:00;;;;;;;10.07;3.97;;;;;;;-5.76;38.64;97023.72;6293336;28;20139;-69
2023/04/15 00:20:05;;;;;;;4.40;2.30;;;;;;;-5.83;37.89;97016.91;6294990;28;20056;-70
2023/04/15 00:23:08;;;;;;;4.80;2.75;;;;;;;-5.84;37.68;97029.69;6294806;28;20044;-69
2023/04/15 00:26:14;;;;;;;7.32;3.20;;;;;;;-5.84;38.44;97045.06;6295068;28;20045;-70
2023/04/15 00:29:16;;;;;;;5.90;3.10;;;;;;;-5.81;38.87;97042.53;6293844;28;20532;-69
2023/04/15 00:32:19;;;;;;;5.15;2.47;;;;;;;-5.87;38.83;97020.31;6295118;28;20044;-70
2023/04/15 00:35:23;;;;;;;4.97;2.13;;;;;;;-5.85;38.42;97030.56;6294930;28;20048;-69
2023/04/15 00:38:24;;;;;;;4.75;2.55;;;;;;;-5.92;38.16;97033.09;6294256;28;20060;-70
2023/04/15 00:41:33;;;;;;;8.02;2.65;;;;;;;-5.94;38.42;97039.13;6294683;28;20743;-69
2023/04/15 00:44:44;;;;;;;9.43;3.05;;;;;;;-5.89;38.70;97035.69;6294664;28;20048;-69
2023/04/15 00:47:48;;;;;;;7.38;3.13;;;;;;;-5.77;38.57;97031.44;6294552;28;20044;-69
2023/04/15 00:50:56;;;;;;;5.22;3.55;;;;;;;-5.93;38.67;97036.50;6294309;28;20049;-69
2023/04/15 00:54:04;;;;;;;4.10;2.53;;;;;;;-5.95;39.21;97024.59;6294602;28;20048;-70
2023/04/15 00:57:06;;;;;;;8.65;3.00;;;;;;;-6.06;39.00;97016.84;6294727;28;20150;-70
2023/04/15 01:00:10;;;;;;;6.13;2.90;;;;;;;-5.87;38.54;97033.97;6298195;28;20044;-70
2023/04/15 01:03:14;;;;;;;7.40;3.92;;;;;;;-5.95;38.89;97030.56;6299662;28;20490;-70
2023/04/15 01:06:21;;;;;;;10.50;3.38;;;;;;;-6.02;39.50;97036.53;6299180;28;20258;-71
2023/04/15 01:09:27;;;;;;;9.27;3.45;;;;;;;-5.95;39.48;97047.63;6298503;28;20048;-69
2023/04/15 01:12:33;;;;;;;3.10;1.90;;;;;;;-5.88;38.75;97042.50;6299680;28;20079;-69
2023/04/15 01:15:35;;;;;;;4.47;2.50;;;;;;;-6.00;38.92;97039.97;6299386;28;20067;-70
2023/04/15 01:18:43;;;;;;;8.70;3.65;;;;;;;-5.88;39.24;97042.50;6299404;28;20036;-70
2023/04/15 01:21:51;;;;;;;7.82;4.05;;;;;;;-6.03;38.87;97045.03;6298828;28;20041;-69
2023/04/15 01:25:11;;;;;;;3.00;1.80;;;;;;;-5.96;38.75;97040.81;6298113;28;20146;-69
2023/04/15 01:28:17;;;;;;;6.40;3.05;;;;;;;-6.03;39.29;97034.78;6299500;28;20048;-69
2023/04/15 01:31:22;;;;;;;9.27;4.03;;;;;;;-6.03;39.28;97044.19;6299253;28;20044;-69
2023/04/15 01:34:26;;;;;;;10.50;4.30;;;;;;;-6.02;39.01;97061.28;6298780;28;20044;-69
2023/04/15 01:37:46;;;;;;;8.05;4.13;;;;;;;-6.13;39.25;97056.97;6298423;28;20040;-70
2023/04/15 01:40:50;;;;;;;5.03;3.30;;;;;;;-6.04;39.02;97068.97;6287574;28;20041;-70
2023/04/15 01:43:53;;;;;;;8.02;3.03;;;;;;;-5.93;39.36;97064.69;6291700;28;20135;-69
2023/04/15 01:47:01;;;;;;;5.60;3.55;;;;;;;-5.95;38.88;97076.66;6298119;28;20040;-69
2023/04/15 01:50:05;;;;;;;11.50;5.03;;;;;;;-5.87;39.42;97082.66;6298238;28;20490;-71
2023/04/15 01:53:10;;;;;;;6.78;4.05;;;;;;;-5.91;39.16;97086.06;6297846;28;20528;-68
2023/04/15 01:56:13;;;;;;;6.90;3.28;;;;;;;-5.89;38.98;97092.06;6297799;28;20048;-69
2023/04/15 01:59:15;;;;;;;4.72;2.42;;;;;;;-5.76;39.25;97094.66;6297478;28;20059;-70
2023/04/15 02:02:21;;;;;;;5.43;2.55;;;;;;;-5.80;39.04;97098.03;6297577;28;20110;-70
2023/04/15 02:05:27;;;;;;;3.78;2.33;;;;;;;-5.71;38.25;97100.66;6297517;28;20054;-70
2023/04/15 02:08:29;;;;;;;5.03;2.88;;;;;;;-5.77;38.62;97113.44;6296237;28;20136;-70
2023/04/15 02:11:36;;;;;;;5.90;2.80;;;;;;;-5.77;38.98;97113.44;6297844;28;20044;-70
2023/04/15 02:14:43;;;;;;;9.63;2.83;;;;;;;-5.80;39.07;97115.97;6289006;28;20051;-70
2023/04/15 02:17:51;;;;;;;6.88;2.63;;;;;;;-5.81;38.67;97106.59;6297873;28;20409;-69
2023/04/15 02:20:56;;;;;;;5.00;2.13;;;;;;;-5.76;38.65;97112.59;6297383;28;20135;-70
2023/04/15 02:24:06;;;;;;;4.35;2.03;;;;;;;-5.71;38.21;97105.78;6297483;28;20082;-70
2023/04/15 02:27:17;;;;;;;4.32;2.92;;;;;;;-5.83;37.92;97109.16;6296736;28;20156;-70
2023/04/15 02:30:24;;;;;;;6.00;2.60;;;;;;;-5.83;38.14;97123.66;6294671;28;20127;-70
2023/04/15 02:33:29;;;;;;;7.43;2.95;;;;;;;-5.80;38.29;97128.78;6297578;28;20328;-71
2023/04/15 02:36:35;;;;;;;6.85;2.35;;;;;;;-5.69;38.51;97127.13;6296526;28;20126;-70
2023/04/15 02:39:41;;;;;;;5.00;2.70;;;;;;;-5.66;38.12;97129.72;6296995;28;20129;-71
2023/04/15 02:42:47;;;;;;;4.43;2.33;;;;;;;-5.57;37.88;97129.72;6296787;28;20314;-70
2023/04/15 02:45:53;;;;;;;5.47;2.55;;;;;;;-5.57;37.94;97146.84;6295823;28;20535;-70
2023/04/15 02:48:59;;;;;;;1.13;1.02;;;;;;;-5.36;37.92;97135.75;6296110;28;20139;-71
2023/04/15 02:52:05;;;;;;;6.00;2.15;;;;;;;-5.21;37.46;97135.75;6296222;28;20087;-69
2023/04/15 02:55:10;;;;;;;6.55;2.40;;;;;;;-5.22;36.74;97139.19;6295940;28;20539;-71
2023/04/15 02:58:16;;;;;;;4.20;1.77;;;;;;;-5.06;36.64;97130.66;6296305;28;20774;-70
2023/04/15 03:01:22;;;;;;;4.78;1.80;;;;;;;-5.02;36.73;97137.50;6295248;28;20206;-70
2023/04/15 03:04:29;;;;;;;4.22;2.80;;;;;;;-5.10;36.46;97148.59;6294250;28;20044;-70
2023/04/15 03:07:34;;;;;;;4.70;2.42;;;;;;;-5.09;36.20;97151.19;6293631;28;20059;-69
2023/04/15 03:10:40;;;;;;;5.50;2.38;;;;;;;-4.96;36.04;97142.63;6294336;28;20123;-70
2023/04/15 03:13:46;;;;;;;2.80;1.63;;;;;;;-5.00;36.17;97146.06;6294304;28;20421;-70
2023/04/15 03:16:51;;;;;;;4.85;2.10;;;;;;;-5.08;35.96;97158.03;6296835;28;20197;-69
2023/04/15 03:19:57;;;;;;;8.18;2.60;;;;;;;-5.02;36.39;97163.16;6295963;28;20052;-69
2023/04/15 03:23:02;;;;;;;2.90;2.13;;;;;;;-4.76;35.77;97159.75;6294702;28;20083;-70
2023/04/15 03:26:08;;;;;;;3.53;1.63;;;;;;;-4.63;35.47;97156.31;6294914;28;20083;-70
2023/04/15 03:29:14;;;;;;;3.35;1.90;;;;;;;-4.59;35.36;97158.03;6295657;28;20459;-70
2023/04/15 03:32:20;;;;;;;3.10;1.80;;;;;;;-4.52;35.78;97152.03;6295253;28;20048;-70
2023/04/15 03:35:25;;;;;;;4.85;1.88;;;;;;;-4.45;35.45;97159.72;6293322;28;20056;-70
2023/04/15 03:38:31;;;;;;;4.18;2.20;;;;;;;-4.47;35.42;97161.44;6295312;28;20079;-70
2023/04/15 03:41:36;;;;;;;5.13;2.53;;;;;;;-4.38;35.07;97164.03;6294969;28;20055;-70
2023/04/15 03:44:42;;;;;;;3.22;2.30;;;;;;;-4.25;34.91;97152.84;6294130;28;20049;-71
2023/04/15 03:47:48;;;;;;;6.30;2.70;;;;;;;-4.28;34.74;97152.84;6294799;28;20143;-70
2023/04/15 03:50:54;;;;;;;6.90;3.42;;;;;;;-4.15;34.60;97154.53;6295659;28;20110;-70
2023/04/15 03:53:59;;;;;;;5.10;2.45;;;;;;;-4.03;34.49;97157.94;6295502;28;20129;-70
2023/04/15 03:57:05;;;;;;;4.47;2.67;;;;;;;-3.97;34.02;97157.91;6294164;28;20546;-71
2023/04/15 04:00:10;;;;;;;7.05;2.60;;;;;;;-3.94;34.38;97156.19;6295455;28;20191;-70
2023/04/15 04:03:16;;;;;;;5.93;2.50;;;;;;;-3.87;34.31;97157.03;6294824;28;20190;-70
2023/04/15 04:06:21;;;;;;;2.83;1.65;;;;;;;-3.95;33.86;97156.22;6294480;28;20194;-70
2023/04/15 04:09:29;;;;;;;4.68;1.85;;;;;;;-4.09;33.94;97163.94;6293242;28;20044;-70
2023/04/15 04:12:35;;;;;;;7.38;2.20;;;;;;;-4.20;33.98;97152.84;6292628;28;20048;-70
2023/04/15 04:15:39;;;;;;;4.47;2.88;;;;;;;-4.21;34.41;97158.84;6293273;28;20082;-70
2023/04/15 04:18:45;;;;;;;3.72;1.67;;;;;;;-4.16;34.31;97155.41;6292689;28;20056;-70
2023/04/15 04:21:50;;;;;;;8.38;2.20;;;;;;;-3.99;34.26;97159.63;6294469;28;20137;-70
2023/04/15 04:24:58;;;;;;;7.68;2.88;;;;;;;-3.88;33.68;97160.44;6293368;28;20060;-71
2023/04/15 04:28:03;;;;;;;6.35;3.47;;;;;;;-3.98;34.10;97156.22;6293911;28;20052;-70
2023/04/15 04:31:09;;;;;;;9.88;3.03;;;;;;;-3.81;33.96;97157.00;6284249;28;20045;-70
2023/04/15 04:34:16;;;;;;;5.97;3.17;;;;;;;-3.85;34.09;97157.88;6269577;28;20092;-70
2023/04/15 04:37:23;;;;;;;4.82;2.35;;;;;;;-3.81;33.63;97157.00;6275725;28;20079;-70
2023/04/15 04:40:30;;;;;;;5.35;2.28;;;;;;;-3.86;33.77;97156.16;6292999;28;20083;-69
2023/04/15 04:43:34;;;;;;;6.10;2.35;;;;;;;-3.75;33.02;97154.41;6294366;28;20440;-70
2023/04/15 04:46:40;;;;;;;3.88;1.88;;;;;;;-3.57;32.64;97157.75;6294004;28;20185;-70
2023/04/15 04:49:46;;;;;;;5.90;2.47;;;;;;;-3.61;32.95;97157.78;6294217;28;20517;-70
2023/04/15 04:52:51;;;;;;;6.80;2.65;;;;;;;-3.31;32.82;97155.94;6293644;28;20186;-70
2023/04/15 04:55:58;;;;;;;5.80;1.95;;;;;;;-3.00;32.12;97151.44;6294219;28;20087;-70
2023/04/15 04:59:03;;;;;;;4.35;2.30;;;;;;;-2.57;30.88;97157.97;6294241;28;20584;-70
2023/04/15 05:02:08;;;;;;;3.30;1.80;;;;;;;-2.22;30.25;97151.63;6292169;28;20079;-71
2023/04/15 05:05:13;;;;;;;4.25;2.08;;;;;;;-1.78;30.01;97155.44;6288113;28;20051;-70
2023/04/15 05:08:21;;;;;;;6.93;2.35;;;;;;;-1.32;29.15;97157.47;6294130;28;20086;-69
2023/04/15 05:11:27;;;;;;;4.75;1.92;;;;;;;-0.69;28.21;97154.81;6293016;28;20108;-70
2023/04/15 05:14:32;;;;;;;4.38;2.05;;;;;;;-0.09;27.85;97149.47;6291651;28;20151;-70
2023/04/15 05:17:37;;;;;;;10.13;3.78;;;;;;;0.53;27.15;97153.47;6292516;28;20118;-69
2023/04/15 05:20:42;;;;;;;6.03;2.80;;;;;;;2.88;25.02;97151.00;6293665;28;20640;-70
2023/04/15 05:23:48;;;;;;;7.78;2.55;;;;;;;6.47;21.79;97156.91;6291860;28;20075;-70
2023/04/15 05:26:53;;;;;;;8.50;3.28;;;;;;;9.31;19.32;97163.84;6293165;28;20083;-70
2023/04/15 05:30:00;;;;;;;5.35;2.90;;;;;;;12.57;17.20;97164.03;6293896;28;20142;-70
2023/04/15 05:33:05;;;;;;;5.78;2.70;;;;;;;15.07;14.57;97168.75;6294066;28;20490;-69
2023/04/15 05:36:10;;;;;;;4.20;2.50;;;;;;;17.05;13.61;97161.31;6293603;28;20605;-70
2023/04/15 05:39:16;;;;;;;8.30;2.85;;;;;;;18.93;12.83;97165.78;6283193;28;20048;-70
2023/04/15 05:42:22;;;;;;;6.80;2.83;;;;;;;20.30;11.92;97164.09;6288359;28;20040;-70
2023/04/15 05:45:27;;;;;;;6.72;2.55;;;;;;;21.21;10.33;97167.28;6294634;28;20143;-69
2023/04/15 05:48:33;;;;;;;5.00;2.10;;;;;;;22.29;9.98;97174.75;6297470;28;20185;-69
2023/04/15 05:51:37;;;;;;;4.97;1.80;;;;;;;23.41;9.62;97183.91;6295563;28;20503;-69
2023/04/15 05:54:43;;;;;;;4.25;1.42;;;;;;;24.74;8.69;97175.81;6296068;28;20080;-69
2023/04/15 05:57:49;;;;;;;3.30;1.90;;;;;;;25.41;8.15;97167.78;6298143;28;20497;-70
2023/04/15 06:00:55;;;;;;;6.22;1.70;;;;;;;26.41;7.75;97175.25;6297289;28;20157;-70
2023/04/15 06:04:01;;;;;;;4.57;2.15;;;;;;;26.98;6.90;97176.19;6297105;28;20143;-69
2023/04/15 06:07:06;;;;;;;4.90;2.25;;;;;;;27.22;6.79;97179.53;6287686;28;20152;-70
2023/04/15 06:10:11;;;;;;;4.95;2.40;;;;;;;26.88;6.77;97173.81;6271659;28;20045;-70
2023/04/15 06:13:16;;;;;;;6.90;2.22;;;;;;;27.67;6.63;97178.13;6285294;28;20517;-70
2023/04/15 06:16:22;;;;;;;3.55;1.92;;;;;;;27.75;5.95;97177.13;6271936;28;20179;-70
2023/04/15 06:19:28;;;;;;;5.55;2.85;;;;;;;27.57;5.95;97184.94;6271501;28;20530;-70
2023/04/15 06:22:33;;;;;;;7.65;3.33;;;;;;;28.01;6.03;97178.31;6272842;28;20080;-70
2023/04/15 06:25:38;;;;;;;3.17;1.85;;;;;;;28.39;5.70;97187.59;6279754;28;20122;-69
2023/04/15 06:28:43;;;;;;;2.47;1.80;;;;;;;29.32;5.28;97179.53;6296644;28;20143;-71
2023/04/15 06:31:49;;;;;;;6.82;2.28;;;;;;;29.49;5.17;97179.94;6297407;28;20052;-70
2023/04/15 06:34:55;;;;;;;4.13;2.10;;;;;;;29.97;5.05;97185.03;6297381;28;20103;-70
2023/04/15 06:38:01;;;;;;;6.32;1.58;;;;;;;29.58;4.52;97177.00;6296817;28;20111;-69
2023/04/15 06:41:07;;;;;;;3.30;1.83;;;;;;;29.49;5.14;97169.09;6296993;28;20194;-70
2023/04/15 06:44:12;;;;;;;3.95;1.48;;;;;;;30.50;4.57;97175.00;6296813;28;20127;-70
2023/04/15 06:47:18;;;;;;;3.03;1.30;;;;;;;30.47;4.42;97170.00;6285842;28;20053;-70
2023/04/15 06:50:24;;;;;;;3.08;1.90;;;;;;;30.91;4.72;97176.38;6271798;28;20049;-70
2023/04/15 06:53:29;;;;;;;5.00;2.00;;;;;;;31.52;4.19;97178.38;6279744;28;20080;-70
2023/04/15 06:56:35;;;;;;;4.93;2.05;;;;;;;31.97;4.32;97169.94;6295284;28;20052;-70
2023/04/15 06:59:42;;;;;;;2.60;1.40;;;;;;;31.72;4.23;97170.81;6294585;28;20060;-69
2023/04/15 07:02:48;;;;;;;3.00;1.20;;;;;;;32.16;3.95;97174.31;6296775;28;20052;-71
2023/04/15 07:05:54;;;;;;;4.38;1.23;;;;;;;32.49;3.46;97177.66;6311295;28;20059;-70
2023/04/15 07:09:00;;;;;;;7.38;1.60;;;;;;;32.60;3.58;97177.69;6294188;28;20048;-70
2023/04/15 07:12:06;;;;;;;4.28;1.48;;;;;;;32.81;3.61;97170.03;6284656;28;20051;-71
2023/04/15 07:15:12;;;;;;;2.67;1.40;;;;;;;32.89;3.27;97172.41;6271379;28;20486;-70
2023/04/15 07:18:20;;;;;;;3.08;1.10;;;;;;;33.64;3.53;97162.78;6269598;28;20143;-71
2023/04/15 07:21:26;;;;;;;5.43;1.67;;;;;;;34.05;3.28;97169.94;6290385;28;20057;-70
2023/04/15 07:24:32;;;;;;;2.78;1.23;;;;;;;33.58;3.37;97169.19;6310871;28;20413;-70
2023/04/15 07:27:38;;;;;;;2.08;1.00;;;;;;;32.63;3.63;97168.22;6295580;28;20699;-70
2023/04/15 07:30:44;;;;;;;6.13;1.80;;;;;;;32.89;3.39;97166.97;6294925;28;20041;-70
2023/04/15 07:33:50;;;;;;;3.78;1.40;;;;;;;33.62;3.26;97171.19;6295569;28;20591;-70
2023/04/15 07:36:56;;;;;;;4.82;1.10;;;;;;;33.94;3.18;97174.34;6294327;28;20048;-70
2023/04/15 07:40:04;;;;;;;1.70;0.82;;;;;;;32.40;3.78;97171.66;6293536;28;20051;-71
2023/04/15 07:43:09;;;;;;;2.92;1.00;;;;;;;29.99;4.15;97158.53;6295361;28;20581;-70
2023/04/15 07:46:15;;;;;;;4.05;0.88;;;;;;;28.44;4.37;97154.50;6295405;28;20127;-71
2023/04/15 07:49:21;;;;;;;1.88;1.10;;;;;;;27.68;4.81;97152.75;6294863;28;20143;-71
2023/04/15 07:52:28;;;;;;;3.15;1.20;;;;;;;27.53;4.67;97136.66;6292682;28;20040;-71
2023/04/15 07:55:34;;;;;;;5.30;1.90;;;;;;;28.55;4.45;97123.31;6292850;28;20519;-71
2023/04/15 07:58:40;;;;;;;5.50;1.08;;;;;;;29.20;4.31;97148.72;6294606;28;20193;-70
2023/04/15 08:01:48;;;;;;;3.38;1.08;;;;;;;30.86;3.82;97148.00;6294124;28;20095;-71
2023/04/15 08:04:54;;;;;;;2.40;0.77;;;;;;;32.35;3.24;97144.28;6293562;28;20052;-71
2023/04/15 08:08:00;;;;;;;3.42;1.05;;;;;;;33.00;3.37;97141.66;6294187;28;20147;-69
2023/04/15 08:11:08;;;;;;;2.65;1.15;;;;;;;34.60;2.87;97154.91;6294096;28;20190;-70
2023/04/15 08:14:15;;;;;;;2.67;0.98;;;;;;;34.91;2.80;97150.78;6294705;28;20083;-72
2023/04/15 08:17:21;;;;;;;4.28;1.00;;;;;;;34.08;2.77;97141.31;6294244;28;20194;-71
2023/04/15 08:20:27;;;;;;;1.45;0.75;;;;;;;32.76;3.18;97140.78;6294627;28;20147;-72
2023/04/15 08:23:33;;;;;;;2.33;1.20;;;;;;;32.62;3.19;97145.59;6292907;28;20422;-71
2023/04/15 08:26:39;;;;;;;2.72;1.02;;;;;;;33.13;3.10;97142.50;6294312;28;20159;-70
2023/04/15 08:29:45;;;;;;;1.92;0.90;;;;;;;33.36;2.90;97134.31;6283718;28;20053;-71
2023/04/15 08:32:52;;;;;;;4.32;1.23;;;;;;;32.68;2.73;97143.00;6270032;28;20413;-71
2023/04/15 08:35:58;;;;;;;2.17;0.73;;;;;;;31.86;3.43;97135.28;6269268;28;20045;-71
2023/04/15 08:39:03;;;;;;;2.80;0.85;;;;;;;31.07;3.68;97141.34;6269165;28;20095;-70
2023/04/15 08:42:16;;;;;;;7.07;4.97;;;;;;;31.74;3.58;97140.69;6269442;28;20528;-71
2023/04/15 08:45:22;;;;;;;4.25;1.45;;;;;;;32.07;3.02;97126.66;6279888;28;20071;-72
2023/04/15 08:48:33;;;;;;;2.58;1.20;;;;;;;32.33;2.95;97135.50;6293341;28;20479;-70
2023/04/15 08:51:39;;;;;;;3.03;1.52;;;;;;;31.74;3.25;97132.50;6292498;28;20132;-71
2023/04/15 08:54:45;;;;;;;5.65;1.63;;;;;;;31.35;3.31;97120.16;6293361;28;20092;-71
2023/04/15 08:57:52;;;;;;;2.13;1.15;;;;;;;31.40;3.60;97128.50;6294161;28;20057;-72
2023/04/15 09:01:00;;;;;;;0.90;0.52;;;;;;;31.54;3.16;97133.56;6293591;28;20533;-70
2023/04/15 09:04:07;;;;;;;3.90;1.70;;;;;;;31.72;2.98;97124.56;6269179;28;20529;-71
2023/04/15 09:07:32;;;;;;;3.42;1.13;;;;;;;31.82;3.20;97120.47;6266857;28;20465;-73
2023/04/15 09:10:40;;;;;;;1.20;0.98;;;;;;;30.77;3.06;97134.88;6273082;28;20040;-72
2023/04/15 09:13:46;;;;;;;2.53;0.80;;;;;;;30.51;3.63;97122.34;6292856;28;20476;-71
2023/04/15 09:17:09;;;;;;;3.03;0.98;;;;;;;31.45;3.50;97128.66;6293581;28;20135;-71
2023/04/15 09:20:15;;;;;;;4.47;1.48;;;;;;;32.01;3.11;97127.59;6296469;28;20535;-71
2023/04/15 09:23:21;;;;;;;1.95;0.80;;;;;;;30.96;3.36;97130.38;6299001;28;20058;-70
2023/04/15 09:26:39;;;;;;;1.52;0.70;;;;;;;30.57;3.72;97132.31;6296895;28;20389;-71
2023/04/15 09:29:49;;;;;;;3.08;1.42;;;;;;;29.94;3.66;97116.81;6298344;28;20082;-70
2023/04/15 09:32:57;;;;;;;3.58;1.48;;;;;;;29.58;3.55;97111.91;6298230;28;20429;-70
2023/04/15 09:36:05;;;;;;;3.83;1.38;;;;;;;29.63;3.59;97110.25;6298289;28;20147;-71
2023/04/15 09:39:10;;;;;;;1.92;1.02;;;;;;;29.30;3.77;97115.78;6297597;28;20044;-71
2023/04/15 09:42:25;;;;;;;1.35;1.10;;;;;;;29.02;4.12;97114.13;6298252;28;20044;-71
2023/04/15 09:45:32;;;;;;;1.65;0.70;;;;;;;28.15;4.25;97105.09;6297970;28;20074;-71
2023/04/15 09:48:38;;;;;;;3.22;0.90;;;;;;;27.50;4.41;97112.75;6297144;28;20051;-70
2023/04/15 09:51:44;;;;;;;2.53;1.10;;;;;;;28.37;4.10;97105.78;6297048;28;20502;-70
2023/04/15 09:54:52;;;;;;;1.73;0.90;;;;;;;28.49;4.10;97097.91;6277077;28;20194;-71
2023/04/15 09:57:58;;;;;;;1.55;1.02;;;;;;;27.17;4.32;97099.06;6271872;28;20165;-71
2023/04/15 10:01:07;;;;;;;3.80;1.33;;;;;;;25.77;4.81;97091.53;6294230;28;20056;-71
2023/04/15 10:04:13;;;;;;;4.45;1.15;;;;;;;25.54;4.81;97097.06;6296138;28;20135;-72
2023/04/15 10:07:21;;;;;;;6.43;1.52;;;;;;;25.03;4.93;97089.75;6296038;28;20458;-72
2023/04/15 10:10:26;;;;;;;1.67;0.80;;;;;;;24.33;5.11;97087.34;6297162;28;20045;-71
2023/04/15 10:13:33;;;;;;;3.10;1.13;;;;;;;23.36;5.71;97086.94;6297282;28;20133;-72
2023/04/15 10:16:43;;;;;;;8.07;1.42;;;;;;;23.30;5.54;97073.19;6297027;28;20079;-71
2023/04/15 10:19:52;;;;;;;7.93;1.60;;;;;;;24.43;5.35;97082.59;6296984;28;20163;-71
2023/04/15 10:23:01;;;;;;;7.93;1.90;;;;;;;25.15;5.38;97078.53;6272609;28;20187;-71
2023/04/15 10:26:07;;;;;;;2.47;1.48;;;;;;;25.29;5.13;97075.81;6272830;28;20119;-71
2023/04/15 10:29:13;;;;;;;4.18;1.52;;;;;;;25.16;5.13;97069.44;6272386;28;20057;-72
2023/04/15 10:32:22;;;;;;;2.30;1.60;;;;;;;24.95;5.38;97073.69;6269881;28;20422;-70
2023/04/15 10:35:33;;;;;;;3.53;1.60;;;;;;;24.99;5.01;97066.06;6272472;28;20057;-70
2023/04/15 10:38:45;;;;;;;7.05;1.80;;;;;;;25.10;5.16;97071.81;6272457;28;20060;-71
2023/04/15 10:42:06;;;;;;;3.30;1.80;;;;;;;25.00;5.19;97063.19;6292318;28;20133;-71
2023/04/15 10:45:18;;;;;;;2.97;1.48;;;;;;;24.35;5.41;97064.66;6296534;28;20048;-72
2023/04/15 10:48:23;;;;;;;5.38;2.03;;;;;;;24.09;5.23;97056.97;6296639;28;20125;-72
2023/04/15 10:51:32;;;;;;;3.15;0.90;;;;;;;24.19;5.49;97060.22;6296874;28;20509;-71
2023/04/15 10:54:38;;;;;;;2.58;1.17;;;;;;;24.19;5.40;97057.53;6296489;28;20145;-71
2023/04/15 10:57:45;;;;;;;2.85;1.30;;;;;;;23.67;5.32;97058.22;6297146;28;20094;-71
2023/04/15 11:00:52;;;;;;;2.13;1.05;;;;;;;23.34;5.74;97048.69;6294656;28;20068;-72
2023/04/15 11:03:58;;;;;;;4.63;1.48;;;;;;;23.43;5.51;97044.94;6294747;28;20131;-71
2023/04/15 11:07:09;;;;;;;3.50;1.40;;;;;;;23.17;5.58;97042.53;6295100;28;20425;-71
2023/04/15 11:10:19;;;;;;;3.42;1.33;;;;;;;22.78;5.87;97044.16;6286110;28;20092;-70
2023/04/15 11:13:28;;;;;;;4.18;2.17;;;;;;;22.27;6.12;97040.06;6294895;28;20053;-71
2023/04/15 11:16:43;;;;;;;3.72;1.65;;;;;;;22.38;6.01;97040.53;6296007;28;20090;-71
2023/04/15 11:19:51;;;;;;;4.20;2.50;;;;;;;22.71;6.09;97029.75;6293967;28;20052;-72
2023/04/15 11:22:57;;;;;;;4.38;1.88;;;;;;;22.66;6.20;97032.13;6295765;28;20125;-73
2023/04/15 11:26:08;;;;;;;3.90;2.03;;;;;;;21.83;6.18;97027.81;6294992;28;20121;-72
2023/04/15 11:29:18;;;;;;;4.68;1.75;;;;;;;21.53;6.21;97032.75;6294356;28;20193;-71
2023/04/15 11:32:24;;;;;;;3.03;1.15;;;;;;;21.35;6.27;97034.72;6295369;28;20056;-71
2023/04/15 11:35:30;;;;;;;3.33;1.60;;;;;;;20.66;6.74;97022.38;6295177;28;20143;-71
2023/04/15 11:38:36;;;;;;;3.38;1.73;;;;;;;20.75;6.47;97016.06;6295610;28;20553;-71
2023/04/15 11:41:44;;;;;;;2.55;2.33;;;;;;;21.14;6.50;97021.75;6293609;28;20137;-71
2023/04/15 11:44:50;;;;;;;4.53;2.00;;;;;;;21.24;6.37;97021.63;6295406;28;20135;-72
2023/04/15 11:48:04;;;;;;;4.10;2.05;;;;;;;20.56;6.73;97022.50;6294980;28;20118;-71
2023/04/15 11:51:11;;;;;;;3.97;1.80;;;;;;;19.14;7.01;97030.38;6295621;28;20148;-71
2023/04/15 11:54:21;;;;;;;5.72;1.73;;;;;;;18.89;7.65;97025.75;6291707;28;20044;-71
2023/04/15 11:57:32;;;;;;;3.40;1.60;;;;;;;19.01;7.39;97029.88;6275816;28;20045;-71
2023/04/15 12:00:37;;;;;;;3.90;2.35;;;;;;;18.17;7.47;97030.69;6293988;28;20056;-70
2023/04/15 12:03:45;;;;;;;4.72;2.28;;;;;;;17.63;7.89;97024.13;6294600;28;20040;-71
2023/04/15 12:06:50;;;;;;;3.85;1.55;;;;;;;17.06;8.07;97024.72;6294452;28;20055;-71
2023/04/15 12:09:59;;;;;;;3.45;1.58;;;;;;;16.63;8.25;97027.63;6285501;28;20032;-70
2023/04/15 12:13:07;;;;;;;7.28;2.08;;;;;;;16.51;8.51;97013.63;6310896;28;20371;-71
2023/04/15 12:16:11;;;;;;;6.07;3.45;;;;;;;15.92;8.62;97019.56;6288967;28;20146;-72
2023/04/15 12:19:22;;;;;;;4.97;2.83;;;;;;;15.17;8.92;97031.00;6293412;28;20036;-71
2023/04/15 12:22:27;;;;;;;3.40;1.98;;;;;;;14.70;9.16;97039.16;6295479;28;20044;-71
2023/04/15 12:25:40;;;;;;;2.75;2.13;;;;;;;14.55;9.21;97027.97;6293129;28;20051;-71
2023/04/15 12:28:45;;;;;;;5.90;2.63;;;;;;;14.32;9.17;97029.75;6296566;28;20130;-70
2023/04/15 12:32:04;;;;;;;13.10;7.95;;;;;;;14.00;9.21;97024.25;6294585;28;20036;-71
2023/04/15 12:35:08;;;;;;;10.55;5.90;;;;;;;13.91;9.20;97020.50;6296203;28;20048;-71
2023/04/15 12:38:12;;;;;;;10.65;5.28;;;;;;;13.83;9.40;97022.06;6293445;28;20081;-71
2023/04/15 12:41:18;;;;;;;8.25;4.20;;;;;;;13.51;9.67;97027.97;6294705;28;20040;-71
2023/04/15 12:44:26;;;;;;;7.47;4.00;;;;;;;13.04;9.70;97027.78;6294288;28;20137;-70
2023/04/15 12:47:31;;;;;;;5.75;3.15;;;;;;;12.60;10.04;97031.00;6294513;28;20049;-72
2023/04/15 12:50:35;;;;;;;3.80;2.75;;;;;;;12.62;10.04;97033.50;6292968;28;20058;-71
2023/04/15 12:53:42;;;;;;;4.97;3.33;;;;;;;12.66;10.18;97037.63;6292007;28;20045;-70
2023/04/15 12:56:47;;;;;;;4.70;2.70;;;;;;;12.43;10.26;97034.81;6295041;28;20488;-71
2023/04/15 12:59:54;;;;;;;4.22;2.30;;;;;;;12.18;10.28;97040.09;6292714;28;20127;-71
2023/04/15 13:02:59;;;;;;;4.35;2.30;;;;;;;11.60;10.55;97044.81;6293062;28;20040;-71
2023/04/15 13:06:03;;;;;;;4.03;2.70;;;;;;;11.43;10.63;97048.56;6293789;28;20472;-71
2023/04/15 13:09:08;;;;;;;5.15;2.20;;;;;;;11.08;10.79;97038.53;6285163;28;20041;-71
2023/04/15 13:12:14;;;;;;;3.83;2.20;;;;;;;10.63;11.09;97047.53;6269008;28;20198;-70
2023/04/15 13:15:21;;;;;;;5.05;2.70;;;;;;;10.34;11.26;97052.81;6287711;28;20088;-70
2023/04/15 13:18:33;;;;;;;5.95;3.33;;;;;;;10.10;11.41;97055.94;6293592;28;20048;-71
2023/04/15 13:25:54;;;;;;;6.82;3.50;;;;;;;9.57;11.72;97059.97;6291398;28;20048;-71
2023/04/15 13:28:59;;;;;;;9.60;3.40;;;;;;;9.18;11.87;97063.09;6294300;28;20036;-71
2023/04/15 13:32:26;;;;;;;8.80;4.13;;;;;;;8.74;11.83;97066.38;6294483;28;20045;-71
2023/04/15 13:35:39;;;;;;;5.93;2.50;;;;;;;8.16;12.18;97065.06;6292675;28;20197;-71
2023/04/15 13:38:49;;;;;;;6.20;3.47;;;;;;;7.94;12.41;97054.84;6294446;28;20037;-70
2023/04/15 13:41:54;;;;;;;9.77;3.67;;;;;;;7.64;12.36;97065.97;6293260;28;20045;-70
2023/04/15 13:44:59;;;;;;;7.20;3.60;;;;;;;7.35;12.51;97070.00;6292418;28;20039;-70
2023/04/15 13:48:05;;;;;;;5.35;3.42;;;;;;;7.10;12.73;97067.72;6293892;28;20059;-71
2023/04/15 13:51:12;;;;;;;6.82;4.18;;;;;;;6.89;12.89;97059.13;6293735;28;20559;-70
2023/04/15 13:54:16;;;;;;;7.10;3.92;;;;;;;6.73;13.10;97074.69;6292488;28;20052;-71
2023/04/15 13:57:21;;;;;;;7.93;4.70;;;;;;;6.59;12.83;97074.47;6273629;28;20064;-71
2023/04/15 14:00:25;;;;;;;9.35;5.28;;;;;;;6.45;13.36;97061.19;6274445;28;20190;-71
2023/04/15 14:03:31;;;;;;;17.70;9.25;;;;;;;6.27;13.40;97076.78;6274411;28;20055;-71
2023/04/15 14:06:36;;;;;;;14.30;6.88;;;;;;;6.17;13.21;97070.28;6271614;28;20048;-71
2023/04/15 14:09:40;;;;;;;12.55;7.38;;;;;;;6.05;13.40;97068.19;6293701;28;20509;-70
2023/04/15 14:12:43;;;;;;;13.90;7.35;;;;;;;5.93;14.02;97063.47;6297266;28;20081;-70
2023/04/15 14:15:50;;;;;;;14.25;7.15;;;;;;;5.74;13.88;97074.69;6296558;28;20064;-70
2023/04/15 14:18:55;;;;;;;10.90;6.82;;;;;;;5.44;13.79;97069.00;6298420;28;20486;-72
2023/04/15 14:22:02;;;;;;;11.63;7.03;;;;;;;5.21;13.85;97067.34;6296950;28;20037;-71
2023/04/15 14:25:06;;;;;;;14.60;8.25;;;;;;;4.94;13.96;97069.28;6280151;28;20059;-71
2023/04/15 14:28:11;;;;;;;12.65;7.43;;;;;;;4.68;14.36;97067.69;6296011;28;20084;-70
2023/04/15 14:31:30;;;;;;;14.60;6.40;;;;;;;4.44;14.45;97062.47;6296992;28;20067;-71
2023/04/15 14:34:35;;;;;;;12.10;6.50;;;;;;;4.17;14.55;97069.56;6279318;28;20056;-71
2023/04/15 14:37:39;;;;;;;11.55;6.68;;;;;;;3.98;14.70;97061.53;6297037;28;20544;-70
2023/04/15 14:40:45;;;;;;;9.63;5.65;;;;;;;3.77;14.80;97067.53;6295637;28;20056;-71
2023/04/15 14:43:50;;;;;;;11.90;6.35;;;;;;;3.53;15.12;97069.19;6296605;28;20063;-71
2023/04/15 14:46:56;;;;;;;13.18;8.07;;;;;;;3.29;15.20;97070.88;6297130;28;20122;-70